sensor_id;sensor_type;location;lat;lon;timestamp;pressure;altitude;pressure_sealevel;temperature;humidity
41712;BME280;27399;51.516;13.670;2023-04-28T00:14:42;100825.06;;;7.65;75.53
41712;BME280;27399;51.516;13.670;2023-04-28T00:17:08;100825.03;;;7.62;75.86
41712;BME280;27399;51.516;13.670;2023-04-28T00:19:35;100823.22;;;7.59;76.09
41712;BME280;27399;51.516;13.670;2023-04-28T00:22:00;100809.88;;;7.53;75.95
41712;BME280;27399;51.516;13.670;2023-04-28T00:24:26;100817.97;;;7.66;76.27
41712;BME280;27399;51.516;13.670;2023-04-28T00:26:52;100803.75;;;7.59;76.11
41712;BME280;27399;51.516;13.670;2023-04-28T00:29:18;100813.56;;;7.68;75.87
41712;BME280;27399;51.516;13.670;2023-04-28T00:31:43;100803.88;;;7.70;75.88
41712;BME280;27399;51.516;13.670;2023-04-28T00:34:10;100811.69;;;7.57;76.58
41712;BME280;27399;51.516;13.670;2023-04-28T00:36:38;100804.81;;;7.80;75.75
41712;BME280;27399;51.516;13.670;2023-04-28T00:39:04;100768.41;;;7.62;75.83
41712;BME280;27399;51.516;13.670;2023-04-28T00:41:30;100795.84;;;7.67;75.63
41712;BME280;27399;51.516;13.670;2023-04-28T00:43:55;100796.78;;;7.69;75.93
41712;BME280;27399;51.516;13.670;2023-04-28T00:46:24;100790.66;;;7.79;75.21
41712;BME280;27399;51.516;13.670;2023-04-28T00:48:51;100791.53;;;7.78;75.47
41712;BME280;27399;51.516;13.670;2023-04-28T00:51:18;100787.13;;;7.80;75.36
41712;BME280;27399;51.516;13.670;2023-04-28T00:53:44;100785.38;;;7.81;75.31
41712;BME280;27399;51.516;13.670;2023-04-28T00:56:10;100775.59;;;7.77;75.06
41712;BME280;27399;51.516;13.670;2023-04-28T00:58:36;100776.44;;;7.72;75.68
41712;BME280;27399;51.516;13.670;2023-04-28T01:01:07;100776.47;;;7.75;75.45
41712;BME280;27399;51.516;13.670;2023-04-28T01:03:34;100770.19;;;7.67;75.95
41712;BME280;27399;51.516;13.670;2023-04-28T01:06:04;100757.06;;;7.81;74.90
41712;BME280;27399;51.516;13.670;2023-04-28T01:08:30;100756.16;;;7.78;75.52
41712;BME280;27399;51.516;13.670;2023-04-28T01:10:56;100758.81;;;7.81;75.13
41712;BME280;27399;51.516;13.670;2023-04-28T01:13:25;100764.03;;;7.70;75.29
41712;BME280;27399;51.516;13.670;2023-04-28T01:15:51;100755.25;;;7.77;75.72
41712;BME280;27399;51.516;13.670;2023-04-28T01:18:16;100753.50;;;7.79;75.63
41712;BME280;27399;51.516;13.670;2023-04-28T01:20:42;100755.34;;;7.89;74.65
41712;BME280;27399;51.516;13.670;2023-04-28T01:23:12;100754.34;;;7.75;75.40
41712;BME280;27399;51.516;13.670;2023-04-28T01:25:38;100751.75;;;7.81;75.58
41712;BME280;27399;51.516;13.670;2023-04-28T01:28:03;100756.16;;;7.81;75.94
41712;BME280;27399;51.516;13.670;2023-04-28T01:30:29;100754.44;;;7.86;74.94
41712;BME280;27399;51.516;13.670;2023-04-28T01:32:55;100756.16;;;7.78;75.19
41712;BME280;27399;51.516;13.670;2023-04-28T01:35:20;100756.91;;;7.66;74.93
41712;BME280;27399;51.516;13.670;2023-04-28T01:37:46;100750.91;;;7.88;74.66
41712;BME280;27399;51.516;13.670;2023-04-28T01:40:12;100744.63;;;7.75;74.87
41712;BME280;27399;51.516;13.670;2023-04-28T01:42:38;100749.13;;;7.86;75.14
41712;BME280;27399;51.516;13.670;2023-04-28T01:45:04;100739.34;;;7.83;74.76
41712;BME280;27399;51.516;13.670;2023-04-28T01:47:30;100740.25;;;7.84;74.90
41712;BME280;27399;51.516;13.670;2023-04-28T01:49:56;100742.88;;;7.79;74.75
41712;BME280;27399;51.516;13.670;2023-04-28T01:52:22;100735.91;;;7.95;74.03
41712;BME280;27399;51.516;13.670;2023-04-28T01:54:49;100736.81;;;7.97;74.27
41712;BME280;27399;51.516;13.670;2023-04-28T01:57:15;100732.28;;;7.85;74.76
41712;BME280;27399;51.516;13.670;2023-04-28T01:59:41;100722.47;;;7.73;75.20
41712;BME280;27399;51.516;13.670;2023-04-28T02:02:06;100720.75;;;7.80;74.56
41712;BME280;27399;51.516;13.670;2023-04-28T02:04:32;100722.47;;;7.75;74.30
41712;BME280;27399;51.516;13.670;2023-04-28T02:06:58;100727.81;;;7.80;73.94
41712;BME280;27399;51.516;13.670;2023-04-28T02:09:24;100721.56;;;7.73;74.25
41712;BME280;27399;51.516;13.670;2023-04-28T02:11:50;100725.19;;;7.81;74.08
41712;BME280;27399;51.516;13.670;2023-04-28T02:14:15;100724.22;;;7.70;74.81
41712;BME280;27399;51.516;13.670;2023-04-28T02:16:41;100719.81;;;7.72;74.64
41712;BME280;27399;51.516;13.670;2023-04-28T02:19:07;100711.06;;;7.88;74.05
41712;BME280;27399;51.516;13.670;2023-04-28T02:21:32;100709.16;;;7.69;74.27
41712;BME280;27399;51.516;13.670;2023-04-28T02:23:58;100704.72;;;7.69;73.81
41712;BME280;27399;51.516;13.670;2023-04-28T02:26:24;100703.81;;;7.64;74.06
41712;BME280;27399;51.516;13.670;2023-04-28T02:28:50;100705.59;;;7.68;74.55
41712;BME280;27399;51.516;13.670;2023-04-28T02:31:16;100700.38;;;7.79;74.92
41712;BME280;27399;51.516;13.670;2023-04-28T02:33:42;100694.06;;;7.62;74.70
41712;BME280;27399;51.516;13.670;2023-04-28T02:36:08;100695.84;;;7.64;74.16
41712;BME280;27399;51.516;13.670;2023-04-28T02:38:34;100695.88;;;7.69;73.99
41712;BME280;27399;51.516;13.670;2023-04-28T02:41:05;100696.75;;;7.69;73.89
41712;BME280;27399;51.516;13.670;2023-04-28T02:43:32;100691.38;;;7.58;74.53
41712;BME280;27399;51.516;13.670;2023-04-28T02:45:58;100691.41;;;7.62;74.83
41712;BME280;27399;51.516;13.670;2023-04-28T02:48:24;100695.91;;;7.72;74.62
41712;BME280;27399;51.516;13.670;2023-04-28T02:50:50;100690.50;;;7.59;74.75
41712;BME280;27399;51.516;13.670;2023-04-28T02:53:17;100687.84;;;7.63;74.60
41712;BME280;27399;51.516;13.670;2023-04-28T02:55:43;100684.31;;;7.64;74.87
41712;BME280;27399;51.516;13.670;2023-04-28T02:58:09;100684.22;;;7.48;75.71
41712;BME280;27399;51.516;13.670;2023-04-28T03:00:34;100685.25;;;7.66;74.80
41712;BME280;27399;51.516;13.670;2023-04-28T03:03:00;100685.19;;;7.61;75.33
41712;BME280;27399;51.516;13.670;2023-04-28T03:05:26;100683.50;;;7.68;74.81
41712;BME280;27399;51.516;13.670;2023-04-28T03:07:52;100685.16;;;7.56;75.31
41712;BME280;27399;51.516;13.670;2023-04-28T03:10:18;100681.66;;;7.60;74.67
41712;BME280;27399;51.516;13.670;2023-04-28T03:12:44;100663.91;;;7.52;75.29
41712;BME280;27399;51.516;13.670;2023-04-28T03:15:10;100668.44;;;7.65;75.36
41712;BME280;27399;51.516;13.670;2023-04-28T03:17:35;100670.22;;;7.68;75.02
41712;BME280;27399;51.516;13.670;2023-04-28T03:20:04;100660.38;;;7.51;75.82
41712;BME280;27399;51.516;13.670;2023-04-28T03:22:30;100592.06;;;7.25;74.89
41712;BME280;27399;51.516;13.670;2023-04-28T03:24:55;100656.00;;;7.63;74.57
41712;BME280;27399;51.516;13.670;2023-04-28T03:27:21;100654.28;;;7.68;74.36
41712;BME280;27399;51.516;13.670;2023-04-28T03:29:47;100653.31;;;7.58;74.48
41712;BME280;27399;51.516;13.670;2023-04-28T03:32:13;100647.09;;;7.54;75.25
41712;BME280;27399;51.516;13.670;2023-04-28T03:34:38;100646.25;;;7.60;74.24
41712;BME280;27399;51.516;13.670;2023-04-28T03:37:04;100645.34;;;7.58;74.72
41712;BME280;27399;51.516;13.670;2023-04-28T03:39:30;100645.31;;;7.53;74.15
41712;BME280;27399;51.516;13.670;2023-04-28T03:41:55;100645.38;;;7.63;74.85
41712;BME280;27399;51.516;13.670;2023-04-28T03:44:21;100647.13;;;7.56;74.45
41712;BME280;27399;51.516;13.670;2023-04-28T03:46:48;100641.84;;;7.62;73.85
41712;BME280;27399;51.516;13.670;2023-04-28T03:49:14;100636.47;;;7.53;75.08
41712;BME280;27399;51.516;13.670;2023-04-28T03:51:40;100641.78;;;7.54;75.04
41712;BME280;27399;51.516;13.670;2023-04-28T03:54:05;100625.91;;;7.57;74.77
41712;BME280;27399;51.516;13.670;2023-04-28T03:56:31;100638.22;;;7.52;75.34
41712;BME280;27399;51.516;13.670;2023-04-28T03:58:57;100629.44;;;7.55;75.18
41712;BME280;27399;51.516;13.670;2023-04-28T04:01:22;100592.97;;;7.27;74.92
41712;BME280;27399;51.516;13.670;2023-04-28T04:03:48;100631.28;;;7.67;74.24
41712;BME280;27399;51.516;13.670;2023-04-28T04:06:14;100641.00;;;7.66;74.30
41712;BME280;27399;51.516;13.670;2023-04-28T04:08:40;100626.84;;;7.67;75.48
41712;BME280;27399;51.516;13.670;2023-04-28T04:11:06;100620.66;;;7.67;75.19
41712;BME280;27399;51.516;13.670;2023-04-28T04:13:31;100617.13;;;7.69;75.17
41712;BME280;27399;51.516;13.670;2023-04-28T04:15:57;100610.09;;;7.76;75.32
41712;BME280;27399;51.516;13.670;2023-04-28T04:18:23;100613.63;;;7.72;75.51
41712;BME280;27399;51.516;13.670;2023-04-28T04:20:49;100609.22;;;7.75;75.67
41712;BME280;27399;51.516;13.670;2023-04-28T04:23:15;100609.19;;;7.71;75.63
41712;BME280;27399;51.516;13.670;2023-04-28T04:25:41;100600.44;;;7.90;75.61
41712;BME280;27399;51.516;13.670;2023-04-28T04:28:06;100601.28;;;7.85;75.36
41712;BME280;27399;51.516;13.670;2023-04-28T04:30:32;100597.75;;;7.87;75.06
41712;BME280;27399;51.516;13.670;2023-04-28T04:32:58;100603.88;;;7.72;76.46
41712;BME280;27399;51.516;13.670;2023-04-28T04:35:24;100596.84;;;7.85;75.69
41712;BME280;27399;51.516;13.670;2023-04-28T04:37:49;100600.47;;;8.01;74.74
41712;BME280;27399;51.516;13.670;2023-04-28T04:40:15;100606.66;;;7.99;75.57
41712;BME280;27399;51.516;13.670;2023-04-28T04:42:41;100593.34;;;7.89;75.94
41712;BME280;27399;51.516;13.670;2023-04-28T04:45:07;100586.28;;;7.95;76.19
41712;BME280;27399;51.516;13.670;2023-04-28T04:47:33;100582.69;;;7.86;76.77
41712;BME280;27399;51.516;13.670;2023-04-28T04:49:59;100584.53;;;7.95;77.08
41712;BME280;27399;51.516;13.670;2023-04-28T04:52:25;100581.94;;;8.09;76.06
41712;BME280;27399;51.516;13.670;2023-04-28T04:54:50;100584.59;;;8.11;76.40
41712;BME280;27399;51.516;13.670;2023-04-28T04:57:16;100582.84;;;8.17;76.01
41712;BME280;27399;51.516;13.670;2023-04-28T04:59:42;100577.56;;;8.20;75.79
41712;BME280;27399;51.516;13.670;2023-04-28T05:02:08;100575.78;;;8.19;76.23
41712;BME280;27399;51.516;13.670;2023-04-28T05:04:33;100579.38;;;8.29;75.84
41712;BME280;27399;51.516;13.670;2023-04-28T05:06:59;100575.81;;;8.33;75.55
41712;BME280;27399;51.516;13.670;2023-04-28T05:09:25;100573.22;;;8.47;75.42
41712;BME280;27399;51.516;13.670;2023-04-28T05:11:51;100575.84;;;8.44;75.78
41712;BME280;27399;51.516;13.670;2023-04-28T05:14:17;100566.06;;;8.37;76.46
41712;BME280;27399;51.516;13.670;2023-04-28T05:16:42;100566.09;;;8.45;75.96
41712;BME280;27399;51.516;13.670;2023-04-28T05:19:08;100562.63;;;8.60;75.61
41712;BME280;27399;51.516;13.670;2023-04-28T05:21:34;100555.53;;;8.62;75.95
41712;BME280;27399;51.516;13.670;2023-04-28T05:24:01;100553.78;;;8.79;74.15
41712;BME280;27399;51.516;13.670;2023-04-28T05:26:26;100565.31;;;8.84;74.38
41712;BME280;27399;51.516;13.670;2023-04-28T05:28:52;100558.25;;;8.87;74.30
41712;BME280;27399;51.516;13.670;2023-04-28T05:31:18;100545.81;;;8.90;75.39
41712;BME280;27399;51.516;13.670;2023-04-28T05:33:44;100547.59;;;9.01;75.81
41712;BME280;27399;51.516;13.670;2023-04-28T05:36:10;100546.72;;;9.19;73.86
41712;BME280;27399;51.516;13.670;2023-04-28T05:38:36;100546.69;;;9.22;74.46
41712;BME280;27399;51.516;13.670;2023-04-28T05:41:01;100546.72;;;9.31;73.27
41712;BME280;27399;51.516;13.670;2023-04-28T05:43:27;100542.25;;;9.28;71.47
41712;BME280;27399;51.516;13.670;2023-04-28T05:45:53;100544.03;;;9.36;72.26
41712;BME280;27399;51.516;13.670;2023-04-28T05:48:19;100537.81;;;9.30;71.28
41712;BME280;27399;51.516;13.670;2023-04-28T05:50:44;100541.38;;;9.40;70.36
41712;BME280;27399;51.516;13.670;2023-04-28T05:53:10;100539.56;;;9.52;69.47
41712;BME280;27399;51.516;13.670;2023-04-28T05:55:36;100546.63;;;9.56;69.90
41712;BME280;27399;51.516;13.670;2023-04-28T05:58:02;100535.94;;;9.70;68.17
41712;BME280;27399;51.516;13.670;2023-04-28T06:00:28;100539.50;;;9.64;68.38
41712;BME280;27399;51.516;13.670;2023-04-28T06:02:54;100539.47;;;9.76;68.82
41712;BME280;27399;51.516;13.670;2023-04-28T06:05:21;100527.00;;;9.85;68.41
41712;BME280;27399;51.516;13.670;2023-04-28T06:07:47;100530.56;;;9.93;66.82
41712;BME280;27399;51.516;13.670;2023-04-28T06:10:12;100528.78;;;9.89;67.46
41712;BME280;27399;51.516;13.670;2023-04-28T06:12:38;100534.97;;;9.99;67.72
41712;BME280;27399;51.516;13.670;2023-04-28T06:15:04;100532.25;;;10.06;67.43
41712;BME280;27399;51.516;13.670;2023-04-28T06:17:30;100524.25;;;10.06;67.20
41712;BME280;27399;51.516;13.670;2023-04-28T06:19:57;100526.97;;;10.00;65.76
41712;BME280;27399;51.516;13.670;2023-04-28T06:22:24;100537.50;;;10.25;67.14
41712;BME280;27399;51.516;13.670;2023-04-28T06:24:50;100529.66;;;9.99;65.13
41712;BME280;27399;51.516;13.670;2023-04-28T06:27:15;100531.28;;;10.24;66.40
41712;BME280;27399;51.516;13.670;2023-04-28T06:29:41;100525.88;;;10.45;65.68
41712;BME280;27399;51.516;13.670;2023-04-28T06:32:07;100523.25;;;10.35;66.46
41712;BME280;27399;51.516;13.670;2023-04-28T06:34:33;100523.16;;;10.48;65.01
41712;BME280;27399;51.516;13.670;2023-04-28T06:36:59;100524.88;;;10.60;64.98
41712;BME280;27399;51.516;13.670;2023-04-28T06:39:25;100517.81;;;10.54;64.87
41712;BME280;27399;51.516;13.670;2023-04-28T06:41:51;100524.91;;;10.55;65.78
41712;BME280;27399;51.516;13.670;2023-04-28T06:44:17;100525.72;;;10.66;64.93
41712;BME280;27399;51.516;13.670;2023-04-28T06:46:43;100520.28;;;10.83;65.33
41712;BME280;27399;51.516;13.670;2023-04-28T06:49:09;100518.41;;;10.92;64.46
41712;BME280;27399;51.516;13.670;2023-04-28T06:51:35;100519.34;;;10.89;63.55
41712;BME280;27399;51.516;13.670;2023-04-28T06:54:01;100512.09;;;11.05;63.89
41712;BME280;27399;51.516;13.670;2023-04-28T06:56:26;100509.38;;;11.10;63.80
41712;BME280;27399;51.516;13.670;2023-04-28T06:58:54;100501.31;;;11.13;64.50
41712;BME280;27399;51.516;13.670;2023-04-28T07:01:21;100502.09;;;11.24;63.31
41712;BME280;27399;51.516;13.670;2023-04-28T07:03:47;100506.53;;;11.25;61.95
41712;BME280;27399;51.516;13.670;2023-04-28T07:06:13;100508.28;;;11.29;62.54
41712;BME280;27399;51.516;13.670;2023-04-28T07:08:41;100495.63;;;11.47;62.06
41712;BME280;27399;51.516;13.670;2023-04-28T07:11:07;100494.72;;;11.51;61.65
41712;BME280;27399;51.516;13.670;2023-04-28T07:13:32;100484.72;;;11.66;62.57
41712;BME280;27399;51.516;13.670;2023-04-28T07:15:58;100485.59;;;11.68;62.91
41712;BME280;27399;51.516;13.670;2023-04-28T07:18:24;100479.22;;;11.81;62.77
41712;BME280;27399;51.516;13.670;2023-04-28T07:20:50;100477.22;;;11.97;62.26
41712;BME280;27399;51.516;13.670;2023-04-28T07:23:15;100479.97;;;11.92;61.17
41712;BME280;27399;51.516;13.670;2023-04-28T07:25:42;100474.28;;;12.17;60.86
41712;BME280;27399;51.516;13.670;2023-04-28T07:28:08;100462.63;;;12.24;61.76
41712;BME280;27399;51.516;13.670;2023-04-28T07:30:34;100468.63;;;12.40;61.29
41712;BME280;27399;51.516;13.670;2023-04-28T07:33:00;100467.53;;;12.52;60.41
41712;BME280;27399;51.516;13.670;2023-04-28T07:35:26;100472.03;;;12.52;59.73
41712;BME280;27399;51.516;13.670;2023-04-28T07:37:52;100469.97;;;12.66;59.85
41712;BME280;27399;51.516;13.670;2023-04-28T07:40:18;100455.69;;;12.67;58.33
41712;BME280;27399;51.516;13.670;2023-04-28T07:42:44;100460.88;;;12.77;58.20
41712;BME280;27399;51.516;13.670;2023-04-28T07:45:10;100463.19;;;13.00;59.29
41712;BME280;27399;51.516;13.670;2023-04-28T07:47:36;100470.19;;;13.07;58.51
41712;BME280;27399;51.516;13.670;2023-04-28T07:50:03;100464.56;;;13.23;59.69
41712;BME280;27399;51.516;13.670;2023-04-28T07:52:31;100464.44;;;13.29;58.60
41712;BME280;27399;51.516;13.670;2023-04-28T07:54:57;100454.34;;;13.45;58.58
41712;BME280;27399;51.516;13.670;2023-04-28T07:57:23;100455.88;;;13.57;59.24
41712;BME280;27399;51.516;13.670;2023-04-28T07:59:49;100442.47;;;13.58;60.14
41712;BME280;27399;51.516;13.670;2023-04-28T08:02:15;100454.09;;;13.57;58.89
41712;BME280;27399;51.516;13.670;2023-04-28T08:04:41;100451.22;;;13.67;59.08
41712;BME280;27399;51.516;13.670;2023-04-28T08:07:08;100449.25;;;13.75;57.86
41712;BME280;27399;51.516;13.670;2023-04-28T08:09:34;100441.97;;;13.82;57.67
41712;BME280;27399;51.516;13.670;2023-04-28T08:12:00;100436.47;;;13.88;58.89
41712;BME280;27399;51.516;13.670;2023-04-28T08:14:26;100434.81;;;13.82;57.67
41712;BME280;27399;51.516;13.670;2023-04-28T08:16:52;100427.31;;;13.98;58.27
41712;BME280;27399;51.516;13.670;2023-04-28T08:19:18;100423.72;;;13.99;58.84
41712;BME280;27399;51.516;13.670;2023-04-28T08:21:43;100425.13;;;14.16;59.69
41712;BME280;27399;51.516;13.670;2023-04-28T08:24:09;100418.69;;;14.23;58.79
41712;BME280;27399;51.516;13.670;2023-04-28T08:26:39;100428.44;;;14.27;58.79
41712;BME280;27399;51.516;13.670;2023-04-28T08:29:04;100420.56;;;14.19;58.59
41712;BME280;27399;51.516;13.670;2023-04-28T08:31:30;100419.69;;;14.19;57.75
41712;BME280;27399;51.516;13.670;2023-04-28T08:33:56;100420.19;;;14.35;58.47
41712;BME280;27399;51.516;13.670;2023-04-28T08:36:22;100421.38;;;14.23;56.55
41712;BME280;27399;51.516;13.670;2023-04-28T08:38:49;100418.22;;;14.43;57.55
41712;BME280;27399;51.516;13.670;2023-04-28T08:41:15;100422.56;;;14.49;57.92
41712;BME280;27399;51.516;13.670;2023-04-28T08:43:42;100411.97;;;14.43;57.17
41712;BME280;27399;51.516;13.670;2023-04-28T08:46:08;100407.81;;;14.65;58.63
41712;BME280;27399;51.516;13.670;2023-04-28T08:48:42;100405.25;;;14.61;58.52
41712;BME280;27399;51.516;13.670;2023-04-28T08:51:15;100404.22;;;14.66;57.47
41712;BME280;27399;51.516;13.670;2023-04-28T08:53:44;100396.56;;;14.87;56.91
41712;BME280;27399;51.516;13.670;2023-04-28T08:56:16;100389.03;;;15.00;57.74
41712;BME280;27399;51.516;13.670;2023-04-28T08:58:43;100389.72;;;15.08;58.29
41712;BME280;27399;51.516;13.670;2023-04-28T09:01:08;100387.97;;;15.07;58.08
41712;BME280;27399;51.516;13.670;2023-04-28T09:03:34;100379.19;;;15.33;56.89
41712;BME280;27399;51.516;13.670;2023-04-28T09:06:00;100382.81;;;15.62;57.27
41712;BME280;27399;51.516;13.670;2023-04-28T09:08:27;100379.41;;;15.87;56.47
41712;BME280;27399;51.516;13.670;2023-04-28T09:13:32;100385.53;;;16.19;54.98
41712;BME280;27399;51.516;13.670;2023-04-28T09:15:59;100388.28;;;16.46;54.61
41712;BME280;27399;51.516;13.670;2023-04-28T09:18:27;100388.50;;;16.38;53.76
41712;BME280;27399;51.516;13.670;2023-04-28T09:21:02;100377.03;;;16.60;54.26
41712;BME280;27399;51.516;13.670;2023-04-28T09:23:28;100378.41;;;16.99;55.43
41712;BME280;27399;51.516;13.670;2023-04-28T09:26:05;100383.59;;;16.78;53.57
41712;BME280;27399;51.516;13.670;2023-04-28T09:28:33;100391.19;;;16.92;53.82
41712;BME280;27399;51.516;13.670;2023-04-28T09:30:59;100378.47;;;16.97;54.04
41712;BME280;27399;51.516;13.670;2023-04-28T09:33:25;100376.47;;;17.28;56.37
41712;BME280;27399;51.516;13.670;2023-04-28T09:35:52;100371.78;;;17.33;54.01
41712;BME280;27399;51.516;13.670;2023-04-28T09:38:19;100363.56;;;17.36;54.14
41712;BME280;27399;51.516;13.670;2023-04-28T09:40:59;100362.94;;;17.53;54.29
41712;BME280;27399;51.516;13.670;2023-04-28T09:43:30;100361.13;;;17.54;53.61
41712;BME280;27399;51.516;13.670;2023-04-28T09:46:04;100350.56;;;17.47;53.73
41712;BME280;27399;51.516;13.670;2023-04-28T09:48:35;100337.91;;;17.49;54.25
41712;BME280;27399;51.516;13.670;2023-04-28T09:51:05;100354.97;;;17.50;53.63
41712;BME280;27399;51.516;13.670;2023-04-28T09:53:33;100356.50;;;17.57;54.89
41712;BME280;27399;51.516;13.670;2023-04-28T09:56:01;100354.44;;;17.40;54.47
41712;BME280;27399;51.516;13.670;2023-04-28T09:58:28;100352.97;;;17.55;54.77
41712;BME280;27399;51.516;13.670;2023-04-28T10:00:59;100343.66;;;17.40;53.64
41712;BME280;27399;51.516;13.670;2023-04-28T10:03:26;100345.47;;;17.16;52.65
41712;BME280;27399;51.516;13.670;2023-04-28T10:05:52;100331.38;;;17.33;53.20
41712;BME280;27399;51.516;13.670;2023-04-28T10:08:23;100331.56;;;17.27;52.04
41712;BME280;27399;51.516;13.670;2023-04-28T10:10:49;100336.16;;;17.25;52.51
41712;BME280;27399;51.516;13.670;2023-04-28T10:13:19;100332.34;;;17.30;52.26
41712;BME280;27399;51.516;13.670;2023-04-28T10:15:45;100337.41;;;17.14;51.71
41712;BME280;27399;51.516;13.670;2023-04-28T10:18:12;100340.59;;;17.26;51.63
41712;BME280;27399;51.516;13.670;2023-04-28T10:20:42;100349.00;;;17.18;52.35
41712;BME280;27399;51.516;13.670;2023-04-28T10:25:59;100331.38;;;17.33;53.81
41712;BME280;27399;51.516;13.670;2023-04-28T10:28:25;100329.59;;;17.32;53.95
41712;BME280;27399;51.516;13.670;2023-04-28T10:31:11;100327.56;;;17.39;53.10
41712;BME280;27399;51.516;13.670;2023-04-28T10:33:38;100325.72;;;17.39;52.96
41712;BME280;27399;51.516;13.670;2023-04-28T10:36:04;100332.28;;;17.32;52.98
41712;BME280;27399;51.516;13.670;2023-04-28T10:38:30;100338.69;;;17.04;52.46
41712;BME280;27399;51.516;13.670;2023-04-28T10:40:56;100326.09;;;17.30;53.04
41712;BME280;27399;51.516;13.670;2023-04-28T10:43:37;100334.78;;;17.13;52.98
41712;BME280;27399;51.516;13.670;2023-04-28T10:46:07;100322.56;;;17.28;52.98
41712;BME280;27399;51.516;13.670;2023-04-28T10:56:19;100310.56;;;17.37;53.96
41712;BME280;27399;51.516;13.670;2023-04-28T10:59:23;100306.22;;;17.32;54.01
41712;BME280;27399;51.516;13.670;2023-04-28T11:01:37;100307.09;;;17.33;53.38
41712;BME280;27399;51.516;13.670;2023-04-28T11:04:08;100307.28;;;17.28;53.10
41712;BME280;27399;51.516;13.670;2023-04-28T11:06:45;100296.22;;;17.12;54.01
41712;BME280;27399;51.516;13.670;2023-04-28T11:14:38;100319.34;;;16.93;54.21
41712;BME280;27399;51.516;13.670;2023-04-28T11:17:08;100307.63;;;17.19;53.73
41712;BME280;27399;51.516;13.670;2023-04-28T11:19:40;100309.25;;;17.23;53.78
41712;BME280;27399;51.516;13.670;2023-04-28T11:22:20;100309.78;;;17.09;53.69
41712;BME280;27399;51.516;13.670;2023-04-28T11:25:01;100318.22;;;17.00;54.42
41712;BME280;27399;51.516;13.670;2023-04-28T11:27:29;100315.88;;;17.14;54.50
41712;BME280;27399;51.516;13.670;2023-04-28T11:29:55;100312.13;;;17.18;53.90
41712;BME280;27399;51.516;13.670;2023-04-28T11:32:30;100310.19;;;17.22;54.59
41712;BME280;27399;51.516;13.670;2023-04-28T11:34:56;100310.25;;;17.21;56.05
41712;BME280;27399;51.516;13.670;2023-04-28T11:37:22;100310.34;;;17.19;55.02
41712;BME280;27399;51.516;13.670;2023-04-28T11:39:48;100308.44;;;17.21;55.19
41712;BME280;27399;51.516;13.670;2023-04-28T11:42:14;100305.69;;;16.99;55.80
41712;BME280;27399;51.516;13.670;2023-04-28T11:44:41;100301.47;;;17.15;56.48
41712;BME280;27399;51.516;13.670;2023-04-28T11:47:13;100291.69;;;17.13;56.61
41712;BME280;27399;51.516;13.670;2023-04-28T11:49:43;100298.75;;;17.15;56.72
41712;BME280;27399;51.516;13.670;2023-04-28T11:52:10;100293.38;;;17.39;58.07
41712;BME280;27399;51.516;13.670;2023-04-28T11:54:36;100314.91;;;16.92;59.68
41712;BME280;27399;51.516;13.670;2023-04-28T11:57:03;100308.50;;;17.19;59.96
41712;BME280;27399;51.516;13.670;2023-04-28T11:59:34;100306.75;;;17.18;60.61
41712;BME280;27399;51.516;13.670;2023-04-28T12:02:02;100303.19;;;17.18;60.15
41712;BME280;27399;51.516;13.670;2023-04-28T12:04:37;100310.47;;;17.38;60.56
41712;BME280;27399;51.516;13.670;2023-04-28T12:07:11;100309.50;;;17.17;59.21
41712;BME280;27399;51.516;13.670;2023-04-28T12:10:23;100314.06;;;17.15;58.41
41712;BME280;27399;51.516;13.670;2023-04-28T12:12:28;100321.25;;;17.14;58.86
41712;BME280;27399;51.516;13.670;2023-04-28T12:15:05;100317.53;;;16.93;59.42
41712;BME280;27399;51.516;13.670;2023-04-28T12:20:01;100304.31;;;16.85;61.36
41712;BME280;27399;51.516;13.670;2023-04-28T12:22:27;100312.75;;;16.76;61.55
41712;BME280;27399;51.516;13.670;2023-04-28T12:25:07;100304.28;;;16.62;62.14
41712;BME280;27399;51.516;13.670;2023-04-28T12:27:35;100310.13;;;16.49;62.18
41712;BME280;27399;51.516;13.670;2023-04-28T12:30:22;100312.84;;;16.73;62.02
41712;BME280;27399;51.516;13.670;2023-04-28T12:32:49;100316.53;;;16.70;63.49
41712;BME280;27399;51.516;13.670;2023-04-28T12:35:15;100321.03;;;16.45;65.01
41712;BME280;27399;51.516;13.670;2023-04-28T12:37:44;100312.22;;;16.66;64.49
41712;BME280;27399;51.516;13.670;2023-04-28T12:40:10;100307.53;;;16.46;65.65
41712;BME280;27399;51.516;13.670;2023-04-28T12:42:36;100314.75;;;16.44;66.87
41712;BME280;27399;51.516;13.670;2023-04-28T12:45:02;100311.19;;;16.17;66.53
41712;BME280;27399;51.516;13.670;2023-04-28T12:47:28;100314.44;;;16.00;66.25
41712;BME280;27399;51.516;13.670;2023-04-28T12:49:53;100319.88;;;16.25;65.78
41712;BME280;27399;51.516;13.670;2023-04-28T12:52:19;100316.72;;;16.12;65.66
41712;BME280;27399;51.516;13.670;2023-04-28T12:54:46;100309.75;;;16.06;66.17
41712;BME280;27399;51.516;13.670;2023-04-28T12:57:12;100305.03;;;15.86;66.30
41712;BME280;27399;51.516;13.670;2023-04-28T12:59:38;100302.13;;;15.92;66.44
41712;BME280;27399;51.516;13.670;2023-04-28T13:02:04;100309.38;;;15.90;66.56
41712;BME280;27399;51.516;13.670;2023-04-28T13:04:30;100297.25;;;15.75;67.46
41712;BME280;27399;51.516;13.670;2023-04-28T13:06:59;100300.72;;;15.79;67.18
41712;BME280;27399;51.516;13.670;2023-04-28T13:09:25;100294.34;;;15.83;67.08
41712;BME280;27399;51.516;13.670;2023-04-28T13:11:51;100278.09;;;15.88;67.23
41712;BME280;27399;51.516;13.670;2023-04-28T13:14:21;100292.63;;;16.09;67.80
41712;BME280;27399;51.516;13.670;2023-04-28T13:16:47;100295.44;;;16.06;67.68
41712;BME280;27399;51.516;13.670;2023-04-28T13:19:13;100290.09;;;16.04;67.04